sensor_id;sensor_type;location;lat;lon;timestamp;P1;durP1;ratioP1;P2;durP2;ratioP2
10299;SDS011;5195;48.562;9.192;2022-07-09T00:02:34;3.13;;;2.83;;
10299;SDS011;5195;48.562;9.192;2022-07-09T00:05:10;3.70;;;2.70;;
10299;SDS011;5195;48.562;9.192;2022-07-09T00:07:46;2.72;;;2.53;;
10299;SDS011;5195;48.562;9.192;2022-07-09T00:10:21;2.97;;;2.63;;
10299;SDS011;5195;48.562;9.192;2022-07-09T00:12:57;3.57;;;2.60;;
10299;SDS011;5195;48.562;9.192;2022-07-09T00:15:33;2.75;;;2.50;;
10299;SDS011;5195;48.562;9.192;2022-07-09T00:18:08;2.67;;;2.47;;
10299;SDS011;5195;48.562;9.192;2022-07-09T00:20:44;3.80;;;2.60;;
10299;SDS011;5195;48.562;9.192;2022-07-09T00:23:20;4.17;;;2.50;;
10299;SDS011;5195;48.562;9.192;2022-07-09T00:25:56;2.97;;;2.77;;
10299;SDS011;5195;48.562;9.192;2022-07-09T00:28:32;3.13;;;2.50;;
10299;SDS011;5195;48.562;9.192;2022-07-09T00:31:08;3.43;;;2.90;;
10299;SDS011;5195;48.562;9.192;2022-07-09T00:33:43;4.97;;;2.97;;
10299;SDS011;5195;48.562;9.192;2022-07-09T00:36:20;3.80;;;2.93;;
10299;SDS011;5195;48.562;9.192;2022-07-09T00:38:55;2.93;;;2.67;;
10299;SDS011;5195;48.562;9.192;2022-07-09T00:41:31;3.20;;;2.90;;
10299;SDS011;5195;48.562;9.192;2022-07-09T00:44:07;3.00;;;2.70;;
10299;SDS011;5195;48.562;9.192;2022-07-09T00:46:42;4.60;;;3.10;;
10299;SDS011;5195;48.562;9.192;2022-07-09T00:49:18;4.93;;;2.87;;
10299;SDS011;5195;48.562;9.192;2022-07-09T00:51:53;4.00;;;3.60;;
10299;SDS011;5195;48.562;9.192;2022-07-09T00:54:29;3.80;;;3.40;;
10299;SDS011;5195;48.562;9.192;2022-07-09T00:57:05;4.27;;;3.30;;
10299;SDS011;5195;48.562;9.192;2022-07-09T00:59:41;4.23;;;3.23;;
10299;SDS011;5195;48.562;9.192;2022-07-09T01:02:18;5.07;;;3.10;;
10299;SDS011;5195;48.562;9.192;2022-07-09T01:04:54;3.93;;;3.53;;
10299;SDS011;5195;48.562;9.192;2022-07-09T01:07:29;3.40;;;3.10;;
10299;SDS011;5195;48.562;9.192;2022-07-09T01:10:05;3.07;;;2.87;;
10299;SDS011;5195;48.562;9.192;2022-07-09T01:12:40;3.63;;;2.83;;
10299;SDS011;5195;48.562;9.192;2022-07-09T01:15:16;7.13;;;3.60;;
10299;SDS011;5195;48.562;9.192;2022-07-09T01:17:52;3.47;;;3.07;;
10299;SDS011;5195;48.562;9.192;2022-07-09T01:20:27;3.37;;;2.77;;
10299;SDS011;5195;48.562;9.192;2022-07-09T01:23:03;6.65;;;3.50;;
10299;SDS011;5195;48.562;9.192;2022-07-09T01:25:39;4.57;;;3.60;;
10299;SDS011;5195;48.562;9.192;2022-07-09T01:28:14;3.93;;;3.10;;
10299;SDS011;5195;48.562;9.192;2022-07-09T01:30:51;3.53;;;3.23;;
10299;SDS011;5195;48.562;9.192;2022-07-09T01:33:26;3.90;;;3.30;;
10299;SDS011;5195;48.562;9.192;2022-07-09T01:36:02;3.13;;;2.93;;
10299;SDS011;5195;48.562;9.192;2022-07-09T01:38:37;4.63;;;3.30;;
10299;SDS011;5195;48.562;9.192;2022-07-09T01:41:13;3.90;;;3.23;;
10299;SDS011;5195;48.562;9.192;2022-07-09T01:43:49;3.57;;;3.37;;
10299;SDS011;5195;48.562;9.192;2022-07-09T01:46:24;5.12;;;3.60;;
10299;SDS011;5195;48.562;9.192;2022-07-09T01:49:00;3.57;;;3.27;;
10299;SDS011;5195;48.562;9.192;2022-07-09T01:51:35;5.63;;;3.10;;
10299;SDS011;5195;48.562;9.192;2022-07-09T01:54:12;3.53;;;3.10;;
10299;SDS011;5195;48.562;9.192;2022-07-09T01:56:47;3.67;;;3.37;;
10299;SDS011;5195;48.562;9.192;2022-07-09T01:59:23;6.53;;;3.60;;
10299;SDS011;5195;48.562;9.192;2022-07-09T02:01:58;3.50;;;3.30;;
10299;SDS011;5195;48.562;9.192;2022-07-09T02:04:34;4.13;;;3.00;;
10299;SDS011;5195;48.562;9.192;2022-07-09T02:07:11;3.23;;;2.93;;
10299;SDS011;5195;48.562;9.192;2022-07-09T02:09:46;4.73;;;2.83;;
10299;SDS011;5195;48.562;9.192;2022-07-09T02:12:21;3.20;;;2.90;;
10299;SDS011;5195;48.562;9.192;2022-07-09T02:14:58;3.47;;;3.17;;
10299;SDS011;5195;48.562;9.192;2022-07-09T02:17:34;4.18;;;3.47;;
10299;SDS011;5195;48.562;9.192;2022-07-09T02:20:10;4.30;;;3.40;;
10299;SDS011;5195;48.562;9.192;2022-07-09T02:22:47;3.95;;;3.47;;
10299;SDS011;5195;48.562;9.192;2022-07-09T02:25:22;4.50;;;3.67;;
10299;SDS011;5195;48.562;9.192;2022-07-09T02:27:59;3.83;;;3.53;;
10299;SDS011;5195;48.562;9.192;2022-07-09T02:30:34;3.20;;;3.00;;
10299;SDS011;5195;48.562;9.192;2022-07-09T02:33:10;4.00;;;3.10;;
10299;SDS011;5195;48.562;9.192;2022-07-09T02:35:45;6.37;;;3.60;;
10299;SDS011;5195;48.562;9.192;2022-07-09T02:38:21;3.80;;;3.07;;
10299;SDS011;5195;48.562;9.192;2022-07-09T02:40:57;3.43;;;3.17;;
10299;SDS011;5195;48.562;9.192;2022-07-09T02:43:32;6.83;;;2.90;;
10299;SDS011;5195;48.562;9.192;2022-07-09T02:46:08;3.47;;;3.17;;
10299;SDS011;5195;48.562;9.192;2022-07-09T02:48:43;3.40;;;3.10;;
10299;SDS011;5195;48.562;9.192;2022-07-09T02:51:19;2.97;;;2.77;;
10299;SDS011;5195;48.562;9.192;2022-07-09T02:53:54;3.37;;;3.10;;
10299;SDS011;5195;48.562;9.192;2022-07-09T02:56:30;3.10;;;2.90;;
10299;SDS011;5195;48.562;9.192;2022-07-09T02:59:06;4.20;;;3.37;;
10299;SDS011;5195;48.562;9.192;2022-07-09T03:01:42;3.03;;;2.80;;
10299;SDS011;5195;48.562;9.192;2022-07-09T03:04:17;3.50;;;3.20;;
10299;SDS011;5195;48.562;9.192;2022-07-09T03:06:53;3.50;;;3.20;;
10299;SDS011;5195;48.562;9.192;2022-07-09T03:09:29;3.30;;;3.00;;
10299;SDS011;5195;48.562;9.192;2022-07-09T03:12:04;4.00;;;3.70;;
10299;SDS011;5195;48.562;9.192;2022-07-09T03:14:40;3.13;;;2.93;;
10299;SDS011;5195;48.562;9.192;2022-07-09T03:17:16;3.67;;;3.37;;
10299;SDS011;5195;48.562;9.192;2022-07-09T03:19:51;3.80;;;3.40;;
10299;SDS011;5195;48.562;9.192;2022-07-09T03:22:27;3.58;;;3.28;;
10299;SDS011;5195;48.562;9.192;2022-07-09T03:25:04;3.60;;;3.30;;
10299;SDS011;5195;48.562;9.192;2022-07-09T03:27:39;3.60;;;3.20;;
10299;SDS011;5195;48.562;9.192;2022-07-09T03:30:15;3.93;;;3.43;;
10299;SDS011;5195;48.562;9.192;2022-07-09T03:32:51;5.07;;;3.30;;
10299;SDS011;5195;48.562;9.192;2022-07-09T03:35:26;5.43;;;3.17;;
10299;SDS011;5195;48.562;9.192;2022-07-09T03:38:02;3.42;;;3.20;;
10299;SDS011;5195;48.562;9.192;2022-07-09T03:40:37;3.23;;;2.70;;
10299;SDS011;5195;48.562;9.192;2022-07-09T03:43:13;4.03;;;3.20;;
10299;SDS011;5195;48.562;9.192;2022-07-09T03:45:48;3.93;;;3.53;;
10299;SDS011;5195;48.562;9.192;2022-07-09T03:48:24;3.97;;;3.58;;
10299;SDS011;5195;48.562;9.192;2022-07-09T03:51:00;3.37;;;3.10;;
10299;SDS011;5195;48.562;9.192;2022-07-09T03:53:35;3.30;;;3.00;;
10299;SDS011;5195;48.562;9.192;2022-07-09T03:56:11;3.62;;;3.33;;
10299;SDS011;5195;48.562;9.192;2022-07-09T03:58:46;3.53;;;3.23;;
10299;SDS011;5195;48.562;9.192;2022-07-09T04:01:22;3.30;;;3.00;;
10299;SDS011;5195;48.562;9.192;2022-07-09T04:03:58;4.07;;;3.47;;
10299;SDS011;5195;48.562;9.192;2022-07-09T04:06:33;3.30;;;3.10;;
10299;SDS011;5195;48.562;9.192;2022-07-09T04:09:09;4.97;;;3.40;;
10299;SDS011;5195;48.562;9.192;2022-07-09T04:11:45;3.60;;;3.40;;
10299;SDS011;5195;48.562;9.192;2022-07-09T04:14:21;3.23;;;3.03;;
10299;SDS011;5195;48.562;9.192;2022-07-09T04:16:58;4.03;;;3.62;;
10299;SDS011;5195;48.562;9.192;2022-07-09T04:19:33;6.57;;;3.30;;
10299;SDS011;5195;48.562;9.192;2022-07-09T04:22:09;3.20;;;3.00;;
10299;SDS011;5195;48.562;9.192;2022-07-09T04:24:45;4.07;;;3.50;;
10299;SDS011;5195;48.562;9.192;2022-07-09T04:27:20;4.00;;;3.40;;
10299;SDS011;5195;48.562;9.192;2022-07-09T04:29:56;4.90;;;3.03;;
10299;SDS011;5195;48.562;9.192;2022-07-09T04:32:32;4.17;;;3.10;;
10299;SDS011;5195;48.562;9.192;2022-07-09T04:35:08;5.43;;;3.13;;
10299;SDS011;5195;48.562;9.192;2022-07-09T04:37:44;3.90;;;3.50;;
10299;SDS011;5195;48.562;9.192;2022-07-09T04:40:19;4.20;;;3.80;;
10299;SDS011;5195;48.562;9.192;2022-07-09T04:42:55;3.50;;;3.30;;
10299;SDS011;5195;48.562;9.192;2022-07-09T04:45:30;3.20;;;3.00;;
10299;SDS011;5195;48.562;9.192;2022-07-09T04:48:06;4.10;;;3.70;;
10299;SDS011;5195;48.562;9.192;2022-07-09T04:50:41;4.80;;;3.80;;
10299;SDS011;5195;48.562;9.192;2022-07-09T04:53:17;3.60;;;3.30;;
10299;SDS011;5195;48.562;9.192;2022-07-09T04:55:53;3.47;;;3.23;;
10299;SDS011;5195;48.562;9.192;2022-07-09T04:58:28;3.60;;;3.40;;
10299;SDS011;5195;48.562;9.192;2022-07-09T05:01:04;3.63;;;3.30;;
10299;SDS011;5195;48.562;9.192;2022-07-09T05:03:40;3.53;;;3.10;;
10299;SDS011;5195;48.562;9.192;2022-07-09T05:06:16;6.33;;;3.30;;
10299;SDS011;5195;48.562;9.192;2022-07-09T05:08:51;2.90;;;2.70;;
10299;SDS011;5195;48.562;9.192;2022-07-09T05:11:26;3.17;;;2.97;;
10299;SDS011;5195;48.562;9.192;2022-07-09T05:14:02;7.97;;;3.10;;
10299;SDS011;5195;48.562;9.192;2022-07-09T05:16:38;3.60;;;3.30;;
10299;SDS011;5195;48.562;9.192;2022-07-09T05:19:13;4.50;;;3.30;;
10299;SDS011;5195;48.562;9.192;2022-07-09T05:21:49;3.33;;;3.13;;
10299;SDS011;5195;48.562;9.192;2022-07-09T05:24:24;3.00;;;2.80;;
10299;SDS011;5195;48.562;9.192;2022-07-09T05:27:00;3.10;;;2.90;;
10299;SDS011;5195;48.562;9.192;2022-07-09T05:29:36;4.15;;;3.40;;
10299;SDS011;5195;48.562;9.192;2022-07-09T05:32:11;3.63;;;3.30;;
10299;SDS011;5195;48.562;9.192;2022-07-09T05:34:47;3.37;;;3.10;;
10299;SDS011;5195;48.562;9.192;2022-07-09T05:37:22;3.83;;;3.20;;
10299;SDS011;5195;48.562;9.192;2022-07-09T05:39:58;3.60;;;3.30;;
10299;SDS011;5195;48.562;9.192;2022-07-09T05:42:33;3.83;;;3.43;;
10299;SDS011;5195;48.562;9.192;2022-07-09T05:45:11;3.17;;;2.97;;
10299;SDS011;5195;48.562;9.192;2022-07-09T05:47:46;4.53;;;3.57;;
10299;SDS011;5195;48.562;9.192;2022-07-09T05:50:22;3.53;;;3.13;;
10299;SDS011;5195;48.562;9.192;2022-07-09T05:52:57;3.97;;;3.58;;
10299;SDS011;5195;48.562;9.192;2022-07-09T05:55:33;4.60;;;3.20;;
10299;SDS011;5195;48.562;9.192;2022-07-09T05:58:09;3.27;;;3.07;;
10299;SDS011;5195;48.562;9.192;2022-07-09T06:00:44;4.00;;;3.60;;
10299;SDS011;5195;48.562;9.192;2022-07-09T06:03:20;4.70;;;3.43;;
10299;SDS011;5195;48.562;9.192;2022-07-09T06:05:57;3.30;;;3.10;;
10299;SDS011;5195;48.562;9.192;2022-07-09T06:08:32;3.20;;;3.00;;
10299;SDS011;5195;48.562;9.192;2022-07-09T06:11:08;4.93;;;3.30;;
10299;SDS011;5195;48.562;9.192;2022-07-09T06:13:44;3.20;;;2.90;;
10299;SDS011;5195;48.562;9.192;2022-07-09T06:16:19;2.70;;;2.50;;
10299;SDS011;5195;48.562;9.192;2022-07-09T06:18:55;3.80;;;2.87;;
10299;SDS011;5195;48.562;9.192;2022-07-09T06:21:30;3.87;;;2.77;;
10299;SDS011;5195;48.562;9.192;2022-07-09T06:24:06;5.60;;;2.73;;
10299;SDS011;5195;48.562;9.192;2022-07-09T06:26:41;3.80;;;2.70;;
10299;SDS011;5195;48.562;9.192;2022-07-09T06:29:17;3.93;;;2.53;;
10299;SDS011;5195;48.562;9.192;2022-07-09T06:31:53;2.50;;;2.23;;
10299;SDS011;5195;48.562;9.192;2022-07-09T06:34:29;2.90;;;2.27;;
10299;SDS011;5195;48.562;9.192;2022-07-09T06:37:06;3.27;;;2.50;;
10299;SDS011;5195;48.562;9.192;2022-07-09T06:39:41;4.72;;;2.60;;
10299;SDS011;5195;48.562;9.192;2022-07-09T06:42:20;3.30;;;2.40;;
10299;SDS011;5195;48.562;9.192;2022-07-09T06:44:56;3.05;;;2.60;;
10299;SDS011;5195;48.562;9.192;2022-07-09T06:47:32;2.40;;;2.13;;
10299;SDS011;5195;48.562;9.192;2022-07-09T06:50:08;3.87;;;2.50;;
10299;SDS011;5195;48.562;9.192;2022-07-09T06:52:43;4.72;;;2.53;;
10299;SDS011;5195;48.562;9.192;2022-07-09T06:55:19;2.23;;;2.10;;
10299;SDS011;5195;48.562;9.192;2022-07-09T06:57:54;4.70;;;2.30;;
10299;SDS011;5195;48.562;9.192;2022-07-09T07:00:30;2.20;;;2.00;;
10299;SDS011;5195;48.562;9.192;2022-07-09T07:03:05;3.03;;;2.20;;
10299;SDS011;5195;48.562;9.192;2022-07-09T07:05:41;3.57;;;2.20;;
10299;SDS011;5195;48.562;9.192;2022-07-09T07:08:17;2.27;;;2.07;;
10299;SDS011;5195;48.562;9.192;2022-07-09T07:10:52;1.83;;;1.73;;
10299;SDS011;5195;48.562;9.192;2022-07-09T07:13:29;5.57;;;2.20;;
10299;SDS011;5195;48.562;9.192;2022-07-09T07:16:04;5.10;;;2.30;;
10299;SDS011;5195;48.562;9.192;2022-07-09T07:18:40;2.53;;;2.33;;
10299;SDS011;5195;48.562;9.192;2022-07-09T07:21:16;3.77;;;2.30;;
10299;SDS011;5195;48.562;9.192;2022-07-09T07:23:51;3.53;;;2.13;;
10299;SDS011;5195;48.562;9.192;2022-07-09T07:26:27;4.45;;;2.12;;
10299;SDS011;5195;48.562;9.192;2022-07-09T07:29:02;5.70;;;2.33;;
10299;SDS011;5195;48.562;9.192;2022-07-09T07:31:39;4.13;;;2.50;;
10299;SDS011;5195;48.562;9.192;2022-07-09T07:34:15;5.03;;;2.15;;
10299;SDS011;5195;48.562;9.192;2022-07-09T07:36:50;3.97;;;2.10;;
10299;SDS011;5195;48.562;9.192;2022-07-09T07:39:26;3.23;;;2.37;;
10299;SDS011;5195;48.562;9.192;2022-07-09T07:42:01;3.33;;;2.30;;
10299;SDS011;5195;48.562;9.192;2022-07-09T07:44:37;8.40;;;2.45;;
10299;SDS011;5195;48.562;9.192;2022-07-09T07:47:13;5.17;;;2.37;;
10299;SDS011;5195;48.562;9.192;2022-07-09T07:49:48;2.20;;;2.00;;
10299;SDS011;5195;48.562;9.192;2022-07-09T07:52:24;3.40;;;2.30;;
10299;SDS011;5195;48.562;9.192;2022-07-09T07:55:00;3.50;;;2.20;;
10299;SDS011;5195;48.562;9.192;2022-07-09T07:57:36;5.50;;;2.50;;
10299;SDS011;5195;48.562;9.192;2022-07-09T08:00:11;4.73;;;2.60;;
10299;SDS011;5195;48.562;9.192;2022-07-09T08:02:48;6.97;;;3.37;;
10299;SDS011;5195;48.562;9.192;2022-07-09T08:05:24;5.43;;;2.60;;
10299;SDS011;5195;48.562;9.192;2022-07-09T08:07:59;2.83;;;2.13;;
10299;SDS011;5195;48.562;9.192;2022-07-09T08:10:37;4.28;;;2.30;;
10299;SDS011;5195;48.562;9.192;2022-07-09T08:13:12;3.47;;;2.00;;
10299;SDS011;5195;48.562;9.192;2022-07-09T08:15:48;2.07;;;1.80;;
10299;SDS011;5195;48.562;9.192;2022-07-09T08:18:23;5.27;;;2.17;;
10299;SDS011;5195;48.562;9.192;2022-07-09T08:20:59;3.10;;;1.93;;
10299;SDS011;5195;48.562;9.192;2022-07-09T08:23:35;5.07;;;2.00;;
10299;SDS011;5195;48.562;9.192;2022-07-09T08:26:11;2.17;;;1.83;;
10299;SDS011;5195;48.562;9.192;2022-07-09T08:28:47;2.47;;;2.00;;
10299;SDS011;5195;48.562;9.192;2022-07-09T08:31:23;4.37;;;1.90;;
10299;SDS011;5195;48.562;9.192;2022-07-09T08:33:58;4.87;;;2.07;;
10299;SDS011;5195;48.562;9.192;2022-07-09T08:36:34;3.10;;;2.00;;
10299;SDS011;5195;48.562;9.192;2022-07-09T08:39:09;2.10;;;1.90;;
10299;SDS011;5195;48.562;9.192;2022-07-09T08:41:46;3.17;;;1.70;;
10299;SDS011;5195;48.562;9.192;2022-07-09T08:44:22;3.07;;;1.80;;
10299;SDS011;5195;48.562;9.192;2022-07-09T08:46:57;1.70;;;1.60;;
10299;SDS011;5195;48.562;9.192;2022-07-09T08:49:34;3.43;;;1.93;;
10299;SDS011;5195;48.562;9.192;2022-07-09T08:52:10;3.15;;;1.80;;
10299;SDS011;5195;48.562;9.192;2022-07-09T08:54:47;2.80;;;1.90;;
10299;SDS011;5195;48.562;9.192;2022-07-09T08:57:22;3.30;;;1.80;;
10299;SDS011;5195;48.562;9.192;2022-07-09T09:00:02;2.33;;;1.60;;
10299;SDS011;5195;48.562;9.192;2022-07-09T09:02:44;1.97;;;1.77;;
10299;SDS011;5195;48.562;9.192;2022-07-09T09:05:19;2.70;;;2.03;;
10299;SDS011;5195;48.562;9.192;2022-07-09T09:07:55;2.40;;;1.73;;
10299;SDS011;5195;48.562;9.192;2022-07-09T09:10:30;2.40;;;1.60;;
10299;SDS011;5195;48.562;9.192;2022-07-09T09:13:06;4.27;;;1.40;;
10299;SDS011;5195;48.562;9.192;2022-07-09T09:15:42;3.60;;;1.40;;
10299;SDS011;5195;48.562;9.192;2022-07-09T09:18:21;1.73;;;1.30;;
10299;SDS011;5195;48.562;9.192;2022-07-09T09:20:53;2.65;;;1.95;;
10299;SDS011;5195;48.562;9.192;2022-07-09T09:23:28;2.67;;;1.50;;
10299;SDS011;5195;48.562;9.192;2022-07-09T09:26:08;4.67;;;1.60;;
10299;SDS011;5195;48.562;9.192;2022-07-09T09:31:32;2.77;;;1.63;;
10299;SDS011;5195;48.562;9.192;2022-07-09T09:36:49;3.00;;;1.70;;
10299;SDS011;5195;48.562;9.192;2022-07-09T09:39:25;2.42;;;1.40;;
10299;SDS011;5195;48.562;9.192;2022-07-09T09:42:00;3.42;;;1.50;;
10299;SDS011;5195;48.562;9.192;2022-07-09T09:44:35;2.40;;;1.60;;
10299;SDS011;5195;48.562;9.192;2022-07-09T09:47:14;4.80;;;1.57;;
10299;SDS011;5195;48.562;9.192;2022-07-09T09:49:49;3.43;;;1.50;;
10299;SDS011;5195;48.562;9.192;2022-07-09T09:52:25;1.70;;;1.23;;
10299;SDS011;5195;48.562;9.192;2022-07-09T09:55:01;19.93;;;2.70;;
10299;SDS011;5195;48.562;9.192;2022-07-09T09:57:37;2.40;;;1.50;;
10299;SDS011;5195;48.562;9.192;2022-07-09T10:00:13;1.80;;;1.50;;
10299;SDS011;5195;48.562;9.192;2022-07-09T10:02:49;2.78;;;1.50;;
10299;SDS011;5195;48.562;9.192;2022-07-09T10:05:24;1.60;;;1.40;;
10299;SDS011;5195;48.562;9.192;2022-07-09T10:08:00;2.33;;;1.45;;
10299;SDS011;5195;48.562;9.192;2022-07-09T10:10:35;1.73;;;1.23;;
10299;SDS011;5195;48.562;9.192;2022-07-09T10:13:18;3.60;;;1.33;;
10299;SDS011;5195;48.562;9.192;2022-07-09T10:15:50;2.53;;;1.40;;
10299;SDS011;5195;48.562;9.192;2022-07-09T10:18:25;1.80;;;1.33;;
10299;SDS011;5195;48.562;9.192;2022-07-09T10:21:01;5.07;;;1.70;;
10299;SDS011;5195;48.562;9.192;2022-07-09T10:23:36;2.53;;;1.17;;
10299;SDS011;5195;48.562;9.192;2022-07-09T10:26:13;1.50;;;1.40;;
10299;SDS011;5195;48.562;9.192;2022-07-09T10:28:49;2.10;;;1.30;;
10299;SDS011;5195;48.562;9.192;2022-07-09T10:31:24;1.23;;;1.13;;
10299;SDS011;5195;48.562;9.192;2022-07-09T10:34:01;1.50;;;1.40;;
10299;SDS011;5195;48.562;9.192;2022-07-09T10:36:35;1.13;;;1.00;;
10299;SDS011;5195;48.562;9.192;2022-07-09T10:39:12;2.07;;;1.30;;
10299;SDS011;5195;48.562;9.192;2022-07-09T10:41:47;1.53;;;1.40;;
10299;SDS011;5195;48.562;9.192;2022-07-09T10:44:36;1.37;;;1.20;;
10299;SDS011;5195;48.562;9.192;2022-07-09T10:47:12;1.30;;;1.20;;
10299;SDS011;5195;48.562;9.192;2022-07-09T10:49:48;1.20;;;1.10;;
10299;SDS011;5195;48.562;9.192;2022-07-09T10:52:29;1.37;;;1.13;;
10299;SDS011;5195;48.562;9.192;2022-07-09T10:54:59;2.63;;;1.30;;
10299;SDS011;5195;48.562;9.192;2022-07-09T10:57:35;2.20;;;1.40;;
10299;SDS011;5195;48.562;9.192;2022-07-09T11:00:15;1.90;;;1.27;;
10299;SDS011;5195;48.562;9.192;2022-07-09T11:02:53;2.50;;;1.20;;
10299;SDS011;5195;48.562;9.192;2022-07-09T11:05:43;1.60;;;1.30;;
10299;SDS011;5195;48.562;9.192;2022-07-09T11:08:13;2.90;;;1.30;;
10299;SDS011;5195;48.562;9.192;2022-07-09T11:10:50;1.33;;;1.23;;
10299;SDS011;5195;48.562;9.192;2022-07-09T11:13:25;2.23;;;1.30;;
10299;SDS011;5195;48.562;9.192;2022-07-09T11:16:01;1.45;;;1.10;;
10299;SDS011;5195;48.562;9.192;2022-07-09T11:18:37;1.35;;;1.12;;
10299;SDS011;5195;48.562;9.192;2022-07-09T11:21:12;1.90;;;1.30;;
10299;SDS011;5195;48.562;9.192;2022-07-09T11:23:51;2.07;;;1.27;;
10299;SDS011;5195;48.562;9.192;2022-07-09T11:26:31;1.60;;;1.50;;
10299;SDS011;5195;48.562;9.192;2022-07-09T11:29:08;1.40;;;1.10;;
10299;SDS011;5195;48.562;9.192;2022-07-09T11:31:46;1.65;;;1.20;;
10299;SDS011;5195;48.562;9.192;2022-07-09T11:34:22;1.70;;;1.40;;
10299;SDS011;5195;48.562;9.192;2022-07-09T11:36:57;2.33;;;1.30;;
10299;SDS011;5195;48.562;9.192;2022-07-09T11:39:32;1.60;;;1.47;;
10299;SDS011;5195;48.562;9.192;2022-07-09T11:42:14;2.50;;;1.25;;
10299;SDS011;5195;48.562;9.192;2022-07-09T11:44:54;1.10;;;1.10;;
10299;SDS011;5195;48.562;9.192;2022-07-09T11:47:33;2.00;;;1.20;;
10299;SDS011;5195;48.562;9.192;2022-07-09T11:50:10;2.43;;;1.30;;
10299;SDS011;5195;48.562;9.192;2022-07-09T11:52:50;3.03;;;1.10;;
10299;SDS011;5195;48.562;9.192;2022-07-09T11:55:28;2.00;;;1.10;;
10299;SDS011;5195;48.562;9.192;2022-07-09T11:57:59;6.20;;;1.40;;
10299;SDS011;5195;48.562;9.192;2022-07-09T12:00:35;1.37;;;1.27;;
10299;SDS011;5195;48.562;9.192;2022-07-09T12:03:10;2.47;;;1.20;;
10299;SDS011;5195;48.562;9.192;2022-07-09T12:05:49;2.07;;;1.43;;
10299;SDS011;5195;48.562;9.192;2022-07-09T12:40:42;2.92;;;1.20;;
10299;SDS011;5195;48.562;9.192;2022-07-09T12:43:07;1.40;;;1.27;;
10299;SDS011;5195;48.562;9.192;2022-07-09T12:45:33;1.80;;;1.13;;
10299;SDS011;5195;48.562;9.192;2022-07-09T12:47:59;3.62;;;1.10;;
10299;SDS011;5195;48.562;9.192;2022-07-09T12:50:25;1.53;;;0.87;;
10299;SDS011;5195;48.562;9.192;2022-07-09T12:52:50;1.55;;;1.33;;
10299;SDS011;5195;48.562;9.192;2022-07-09T12:55:16;1.92;;;1.30;;
10299;SDS011;5195;48.562;9.192;2022-07-09T12:57:42;2.20;;;1.00;;
10299;SDS011;5195;48.562;9.192;2022-07-09T13:00:07;2.57;;;1.23;;
10299;SDS011;5195;48.562;9.192;2022-07-09T13:02:33;1.30;;;1.20;;
10299;SDS011;5195;48.562;9.192;2022-07-09T13:04:59;1.93;;;1.10;;
10299;SDS011;5195;48.562;9.192;2022-07-09T13:07:26;2.20;;;1.20;;
10299;SDS011;5195;48.562;9.192;2022-07-09T13:09:52;2.10;;;1.07;;
10299;SDS011;5195;48.562;9.192;2022-07-09T13:12:18;1.00;;;1.00;;
10299;SDS011;5195;48.562;9.192;2022-07-09T13:14:45;1.30;;;1.20;;
10299;SDS011;5195;48.562;9.192;2022-07-09T13:17:10;1.63;;;1.20;;
10299;SDS011;5195;48.562;9.192;2022-07-09T13:19:36;2.27;;;1.30;;
10299;SDS011;5195;48.562;9.192;2022-07-09T13:22:03;2.27;;;1.17;;
10299;SDS011;5195;48.562;9.192;2022-07-09T13:24:28;3.97;;;1.23;;
10299;SDS011;5195;48.562;9.192;2022-07-09T13:26:54;2.22;;;1.35;;
10299;SDS011;5195;48.562;9.192;2022-07-09T13:29:19;1.50;;;1.17;;
10299;SDS011;5195;48.562;9.192;2022-07-09T13:31:45;1.80;;;1.30;;
10299;SDS011;5195;48.562;9.192;2022-07-09T13:34:11;1.27;;;1.17;;
10299;SDS011;5195;48.562;9.192;2022-07-09T13:36:36;2.77;;;1.40;;
10299;SDS011;5195;48.562;9.192;2022-07-09T13:39:02;1.60;;;1.50;;
10299;SDS011;5195;48.562;9.192;2022-07-09T13:41:28;3.17;;;1.40;;
10299;SDS011;5195;48.562;9.192;2022-07-09T13:43:54;2.30;;;1.60;;
10299;SDS011;5195;48.562;9.192;2022-07-09T13:46:19;1.40;;;1.30;;
10299;SDS011;5195;48.562;9.192;2022-07-09T13:48:45;2.00;;;1.60;;
10299;SDS011;5195;48.562;9.192;2022-07-09T13:51:10;3.28;;;1.95;;
10299;SDS011;5195;48.562;9.192;2022-07-09T13:53:36;3.73;;;1.27;;
10299;SDS011;5195;48.562;9.192;2022-07-09T13:56:02;2.27;;;1.50;;
10299;SDS011;5195;48.562;9.192;2022-07-09T13:58:27;2.07;;;1.53;;
10299;SDS011;5195;48.562;9.192;2022-07-09T14:00:53;3.33;;;1.67;;
10299;SDS011;5195;48.562;9.192;2022-07-09T14:03:19;1.53;;;1.27;;
10299;SDS011;5195;48.562;9.192;2022-07-09T14:05:44;2.23;;;1.30;;
10299;SDS011;5195;48.562;9.192;2022-07-09T14:08:10;1.40;;;1.30;;
10299;SDS011;5195;48.562;9.192;2022-07-09T14:10:39;2.40;;;1.30;;
10299;SDS011;5195;48.562;9.192;2022-07-09T14:13:04;8.00;;;1.80;;
10299;SDS011;5195;48.562;9.192;2022-07-09T14:15:30;3.22;;;1.55;;
10299;SDS011;5195;48.562;9.192;2022-07-09T14:17:55;2.65;;;1.75;;
10299;SDS011;5195;48.562;9.192;2022-07-09T14:20:21;1.77;;;1.37;;
10299;SDS011;5195;48.562;9.192;2022-07-09T14:22:46;2.87;;;1.40;;
10299;SDS011;5195;48.562;9.192;2022-07-09T14:25:12;1.40;;;1.30;;
10299;SDS011;5195;48.562;9.192;2022-07-09T14:27:38;1.55;;;1.20;;
10299;SDS011;5195;48.562;9.192;2022-07-09T14:30:03;2.07;;;1.20;;
10299;SDS011;5195;48.562;9.192;2022-07-09T14:32:30;2.07;;;1.40;;
10299;SDS011;5195;48.562;9.192;2022-07-09T14:34:56;2.20;;;1.40;;
10299;SDS011;5195;48.562;9.192;2022-07-09T14:37:22;1.33;;;1.23;;
10299;SDS011;5195;48.562;9.192;2022-07-09T14:39:47;1.75;;;1.10;;
10299;SDS011;5195;48.562;9.192;2022-07-09T14:42:14;1.60;;;1.10;;
10299;SDS011;5195;48.562;9.192;2022-07-09T14:44:39;3.70;;;1.20;;
10299;SDS011;5195;48.562;9.192;2022-07-09T14:47:06;4.20;;;1.40;;
10299;SDS011;5195;48.562;9.192;2022-07-09T14:49:33;4.80;;;1.37;;
10299;SDS011;5195;48.562;9.192;2022-07-09T14:51:58;1.20;;;1.20;;
10299;SDS011;5195;48.562;9.192;2022-07-09T14:54:24;2.57;;;1.13;;
10299;SDS011;5195;48.562;9.192;2022-07-09T14:56:50;1.27;;;1.17;;
10299;SDS011;5195;48.562;9.192;2022-07-09T14:59:17;1.40;;;1.30;;
10299;SDS011;5195;48.562;9.192;2022-07-09T15:01:43;1.77;;;1.40;;
10299;SDS011;5195;48.562;9.192;2022-07-09T15:04:08;1.27;;;1.17;;
10299;SDS011;5195;48.562;9.192;2022-07-09T15:06:33;3.30;;;1.27;;
10299;SDS011;5195;48.562;9.192;2022-07-09T15:08:59;1.13;;;1.07;;
10299;SDS011;5195;48.562;9.192;2022-07-09T15:11:24;1.50;;;1.50;;
10299;SDS011;5195;48.562;9.192;2022-07-09T15:13:50;1.70;;;1.07;;
10299;SDS011;5195;48.562;9.192;2022-07-09T15:16:16;1.60;;;1.40;;
10299;SDS011;5195;48.562;9.192;2022-07-09T15:18:41;3.60;;;1.33;;
10299;SDS011;5195;48.562;9.192;2022-07-09T15:21:07;1.48;;;1.30;;
10299;SDS011;5195;48.562;9.192;2022-07-09T15:23:32;2.33;;;1.20;;
10299;SDS011;5195;48.562;9.192;2022-07-09T15:25:58;1.30;;;1.20;;
10299;SDS011;5195;48.562;9.192;2022-07-09T15:28:23;1.30;;;1.20;;
10299;SDS011;5195;48.562;9.192;2022-07-09T15:30:49;2.12;;;1.15;;
10299;SDS011;5195;48.562;9.192;2022-07-09T15:33:16;1.40;;;1.30;;
10299;SDS011;5195;48.562;9.192;2022-07-09T15:35:43;1.27;;;1.20;;
10299;SDS011;5195;48.562;9.192;2022-07-09T15:38:09;1.27;;;1.10;;
10299;SDS011;5195;48.562;9.192;2022-07-09T15:40:34;1.23;;;1.12;;
10299;SDS011;5195;48.562;9.192;2022-07-09T15:43:00;1.52;;;1.10;;
10299;SDS011;5195;48.562;9.192;2022-07-09T15:45:28;1.57;;;1.30;;
10299;SDS011;5195;48.562;9.192;2022-07-09T15:47:58;1.67;;;1.10;;
10299;SDS011;5195;48.562;9.192;2022-07-09T15:50:23;1.87;;;1.25;;
10299;SDS011;5195;48.562;9.192;2022-07-09T15:52:49;1.33;;;1.23;;
10299;SDS011;5195;48.562;9.192;2022-07-09T15:55:15;1.15;;;1.08;;
10299;SDS011;5195;48.562;9.192;2022-07-09T15:57:41;1.73;;;1.53;;
10299;SDS011;5195;48.562;9.192;2022-07-09T16:00:07;1.50;;;1.40;;
10299;SDS011;5195;48.562;9.192;2022-07-09T16:02:32;1.30;;;1.20;;
10299;SDS011;5195;48.562;9.192;2022-07-09T16:04:58;1.07;;;0.90;;
10299;SDS011;5195;48.562;9.192;2022-07-09T16:07:24;1.20;;;1.20;;
10299;SDS011;5195;48.562;9.192;2022-07-09T16:09:50;1.50;;;1.40;;
10299;SDS011;5195;48.562;9.192;2022-07-09T16:12:15;1.83;;;1.40;;
10299;SDS011;5195;48.562;9.192;2022-07-09T16:15:01;8.80;;;8.30;;
10299;SDS011;5195;48.562;9.192;2022-07-09T16:17:26;6.20;;;5.70;;